createdAt,value
2023-03-01T00:01:45.337Z,12.47
2023-03-01T00:04:13.391Z,12.17
2023-03-01T00:06:41.522Z,12.47
2023-03-01T00:09:09.641Z,14.60
2023-03-01T00:11:37.694Z,12.63
2023-03-01T00:14:07.648Z,11.53
2023-03-01T00:16:40.711Z,13.03
2023-03-01T00:19:13.158Z,14.27
2023-03-01T00:21:41.419Z,14.37
2023-03-01T00:24:10.700Z,13.23
2023-03-01T00:26:38.755Z,13.07
2023-03-01T00:29:07.078Z,12.57
2023-03-01T00:31:37.760Z,13.43
2023-03-01T00:34:08.131Z,12.37
2023-03-01T00:36:38.850Z,11.20
2023-03-01T00:39:11.737Z,13.33
2023-03-01T00:41:41.108Z,12.37
2023-03-01T00:44:10.537Z,14.63
2023-03-01T00:46:40.711Z,13.97
2023-03-01T00:49:08.823Z,14.87
2023-03-01T00:51:36.881Z,12.33
2023-03-01T00:54:05.151Z,13.77
2023-03-01T00:56:33.986Z,14.67
2023-03-01T00:59:02.570Z,17.30
2023-03-01T01:01:33.270Z,14.23
2023-03-01T01:04:06.116Z,14.37
2023-03-01T01:06:37.180Z,13.43
2023-03-01T01:09:07.554Z,15.70
2023-03-01T01:11:37.331Z,16.30
2023-03-01T01:14:05.967Z,13.77
2023-03-01T01:16:34.331Z,13.80
2023-03-01T01:19:04.580Z,14.87
2023-03-01T01:21:33.301Z,16.10
2023-03-01T01:24:01.641Z,14.13
2023-03-01T01:26:33.514Z,10.87
2023-03-01T01:29:03.488Z,12.80
2023-03-01T01:31:32.456Z,13.33
2023-03-01T01:34:02.755Z,15.23
2023-03-01T01:36:33.629Z,13.10
2023-03-01T01:39:02.514Z,11.07
2023-03-01T01:41:31.604Z,14.57
2023-03-01T01:44:21.823Z,10.67
2023-03-01T01:46:54.599Z,13.87
2023-03-01T01:49:33.094Z,12.90
2023-03-01T01:52:11.598Z,12.83
2023-03-01T01:54:47.052Z,11.40
2023-03-01T01:57:21.817Z,16.43
2023-03-01T01:59:54.848Z,10.40
2023-03-01T02:02:23.164Z,13.33
2023-03-01T02:04:54.719Z,15.20
2023-03-01T02:07:25.684Z,15.13
2023-03-01T02:09:55.187Z,12.17
2023-03-01T02:12:26.771Z,16.00
2023-03-01T02:14:54.843Z,15.13
2023-03-01T02:17:23.831Z,15.77
2023-03-01T02:20:14.798Z,16.33
2023-03-01T02:22:46.799Z,13.23
2023-03-01T02:25:42.430Z,11.53
2023-03-01T02:28:25.269Z,13.97
2023-03-01T02:31:12.738Z,11.97
2023-03-01T02:33:42.079Z,12.20
2023-03-01T02:36:16.062Z,12.30
2023-03-01T02:38:44.864Z,17.03
2023-03-01T02:41:16.848Z,14.10
2023-03-01T02:43:46.708Z,13.43
2023-03-01T02:46:19.191Z,12.93
2023-03-01T02:48:50.626Z,14.03
2023-03-01T02:51:44.520Z,12.87
2023-03-01T02:54:26.441Z,14.50
2023-03-01T02:56:55.286Z,11.67
2023-03-01T02:59:31.859Z,13.17
2023-03-01T03:01:59.912Z,13.60
2023-03-01T03:04:28.023Z,11.83
2023-03-01T03:06:56.096Z,15.03
2023-03-01T03:09:24.525Z,13.43
2023-03-01T03:11:52.749Z,14.83
2023-03-01T03:14:20.906Z,15.23
2023-03-01T03:16:52.653Z,14.43
2023-03-01T03:19:21.793Z,19.03
2023-03-01T03:21:50.460Z,16.37
2023-03-01T03:24:19.295Z,15.03
2023-03-01T03:26:47.395Z,11.77
2023-03-01T03:29:15.558Z,14.00
2023-03-01T03:31:43.644Z,12.87
2023-03-01T03:34:18.814Z,14.40
2023-03-01T03:36:47.010Z,13.63
2023-03-01T03:39:15.089Z,15.40
2023-03-01T03:41:43.086Z,15.50
2023-03-01T03:44:11.168Z,15.40
2023-03-01T03:46:39.259Z,15.77
2023-03-01T03:49:07.310Z,15.67
2023-03-01T03:51:36.722Z,14.93
2023-03-01T03:54:05.017Z,22.90
2023-03-01T03:56:33.439Z,15.80
2023-03-01T03:59:01.790Z,13.83
2023-03-01T04:01:29.900Z,17.80
2023-03-01T04:04:04.998Z,16.37
2023-03-01T04:06:33.544Z,14.80
2023-03-01T04:09:03.980Z,15.70
2023-03-01T04:11:32.297Z,14.50
2023-03-01T04:14:01.151Z,15.57
2023-03-01T04:16:29.814Z,16.43
2023-03-01T04:19:00.607Z,13.77
2023-03-01T04:21:28.710Z,14.27
2023-03-01T04:23:56.825Z,12.80
2023-03-01T04:26:26.343Z,17.00
2023-03-01T04:28:54.425Z,14.57
2023-03-01T04:31:22.973Z,17.90
2023-03-01T04:33:53.892Z,14.60
2023-03-01T04:36:25.285Z,15.63
2023-03-01T04:38:53.891Z,13.77
2023-03-01T04:41:24.478Z,17.20
2023-03-01T04:43:54.152Z,15.47
2023-03-01T04:46:23.285Z,17.93
2023-03-01T04:48:51.482Z,15.97
2023-03-01T04:51:19.685Z,15.20
2023-03-01T04:53:48.063Z,15.67
2023-03-01T04:56:18.758Z,15.57
2023-03-01T04:58:48.199Z,16.30
2023-03-01T05:01:20.655Z,15.83
2023-03-01T05:03:51.148Z,13.87
2023-03-01T05:06:21.544Z,15.77
2023-03-01T05:08:49.827Z,19.40
2023-03-01T05:11:17.891Z,14.30
2023-03-01T05:13:46.030Z,16.00
2023-03-01T05:16:14.105Z,17.47
2023-03-01T05:18:44.372Z,16.97
2023-03-01T05:21:16.987Z,17.80
2023-03-01T05:23:45.592Z,15.20
2023-03-01T05:26:27.916Z,15.60
2023-03-01T05:28:59.541Z,16.53
2023-03-01T05:31:28.257Z,16.30
2023-03-01T05:33:57.671Z,17.57
2023-03-01T05:36:25.744Z,14.00
2023-03-01T05:38:53.802Z,17.60
2023-03-01T05:41:21.892Z,14.70
2023-03-01T05:43:49.904Z,23.20
2023-03-01T05:46:17.982Z,20.27
2023-03-01T05:48:46.077Z,15.83
2023-03-01T05:51:15.506Z,15.97
2023-03-01T05:53:43.620Z,15.70
2023-03-01T05:56:11.762Z,16.83
2023-03-01T05:58:40.066Z,20.10
2023-03-01T06:01:13.695Z,18.03
2023-03-01T06:03:41.754Z,18.07
2023-03-01T06:06:09.801Z,15.93
2023-03-01T06:08:39.169Z,15.97
2023-03-01T06:11:08.126Z,16.10
2023-03-01T06:13:36.220Z,14.67
2023-03-01T06:16:08.168Z,17.73
2023-03-01T06:18:36.349Z,19.17
2023-03-01T06:21:05.857Z,18.80
2023-03-01T06:23:34.373Z,13.73
2023-03-01T06:26:08.894Z,17.03
2023-03-01T06:28:37.690Z,13.33
2023-03-01T06:31:09.657Z,14.70
2023-03-01T06:33:40.557Z,14.97
2023-03-01T06:36:10.976Z,18.57
2023-03-01T06:38:39.289Z,14.80
2023-03-01T06:41:09.254Z,17.70
2023-03-01T06:43:37.309Z,16.87
2023-03-01T06:46:08.669Z,16.60
2023-03-01T06:48:36.931Z,18.60
2023-03-01T06:51:05.370Z,14.77
2023-03-01T06:53:33.499Z,19.33
2023-03-01T06:56:01.787Z,22.13
2023-03-01T06:58:31.286Z,14.80
2023-03-01T07:00:59.330Z,14.37
2023-03-01T07:03:27.545Z,15.50
2023-03-01T07:05:55.548Z,17.00
2023-03-01T07:08:24.703Z,18.57
2023-03-01T07:10:57.859Z,15.13
2023-03-01T07:13:26.185Z,15.00
2023-03-01T07:15:55.716Z,17.53
2023-03-01T07:18:23.993Z,18.50
2023-03-01T07:20:52.170Z,15.67
2023-03-01T07:23:20.389Z,19.33
2023-03-01T07:25:55.063Z,20.70
2023-03-01T07:28:24.945Z,17.90
2023-03-01T07:30:53.056Z,16.90
2023-03-01T07:33:22.867Z,18.50
2023-03-01T07:35:57.319Z,17.37
2023-03-01T07:38:25.580Z,16.63
2023-03-01T07:40:53.645Z,16.67
2023-03-01T07:43:22.322Z,13.90
2023-03-01T07:45:50.393Z,17.07
2023-03-01T07:48:18.433Z,16.67
2023-03-01T07:50:48.304Z,14.70
2023-03-01T07:53:16.381Z,13.73
2023-03-01T07:55:44.423Z,20.07
2023-03-01T07:58:12.519Z,17.80
2023-03-01T08:00:40.588Z,21.17
2023-03-01T08:03:08.756Z,16.37
2023-03-01T08:05:36.902Z,22.00
2023-03-01T08:08:06.988Z,20.40
2023-03-01T08:10:35.095Z,15.17
2023-03-01T08:13:03.084Z,19.67
2023-03-01T08:15:31.456Z,16.70
2023-03-01T08:17:59.504Z,20.20
2023-03-01T08:20:27.532Z,16.43
2023-03-01T08:22:55.567Z,20.23
2023-03-01T08:25:24.953Z,18.63
2023-03-01T08:27:53.038Z,17.20
2023-03-01T08:30:21.507Z,19.90
2023-03-01T08:32:49.618Z,21.43
2023-03-01T08:35:18.056Z,21.13
2023-03-01T08:37:46.149Z,22.67
2023-03-01T08:40:15.787Z,14.23
2023-03-01T08:42:45.342Z,19.77
2023-03-01T08:45:15.262Z,21.73
2023-03-01T08:47:43.401Z,22.93
2023-03-01T08:50:12.326Z,17.77
2023-03-01T08:52:40.573Z,19.07
2023-03-01T08:55:10.382Z,19.17
2023-03-01T08:57:38.426Z,19.73
2023-03-01T09:00:10.675Z,19.40
2023-03-01T09:02:39.695Z,18.90
2023-03-01T09:05:08.552Z,20.50
2023-03-01T09:07:36.572Z,17.83
2023-03-01T09:10:06.040Z,18.43
2023-03-01T09:12:34.068Z,20.37
2023-03-01T09:15:02.198Z,21.53
2023-03-01T09:17:31.730Z,19.20
2023-03-01T09:20:00.624Z,22.43
2023-03-01T09:22:28.719Z,18.97
2023-03-01T09:24:57.504Z,17.77
2023-03-01T09:27:26.122Z,18.87
2023-03-01T09:29:54.186Z,18.40
2023-03-01T09:32:22.278Z,17.47
2023-03-01T09:35:05.659Z,19.90
2023-03-01T09:37:35.183Z,19.80
2023-03-01T09:40:03.852Z,22.17
2023-03-01T09:42:35.793Z,19.90
2023-03-01T09:45:07.885Z,18.87
2023-03-01T09:47:38.909Z,18.47
2023-03-01T09:50:15.698Z,20.50
2023-03-01T09:52:47.982Z,21.57
2023-03-01T09:55:19.540Z,20.03
2023-03-01T09:57:56.853Z,19.77
2023-03-01T10:00:38.052Z,20.67
2023-03-01T10:03:18.615Z,17.63
2023-03-01T10:06:01.691Z,17.93
2023-03-01T10:08:38.673Z,18.30
2023-03-01T10:11:16.267Z,21.23
2023-03-01T10:13:53.749Z,18.27
2023-03-01T10:16:29.736Z,18.70
2023-03-01T10:19:02.022Z,18.17
2023-03-01T10:21:33.387Z,16.47
2023-03-01T10:24:13.334Z,18.93
2023-03-01T10:26:50.306Z,19.87
2023-03-01T10:29:19.783Z,16.43
2023-03-01T10:31:50.617Z,18.03
2023-03-01T10:34:21.335Z,20.63
2023-03-01T10:36:54.979Z,17.63
2023-03-01T10:39:34.446Z,17.33
2023-03-01T10:42:27.275Z,17.40
2023-03-01T10:44:55.381Z,16.13
2023-03-01T10:47:26.898Z,19.40
2023-03-01T10:50:02.180Z,20.80
2023-03-01T10:52:36.427Z,17.80
2023-03-01T10:55:35.489Z,20.00
2023-03-01T10:58:20.106Z,20.83
2023-03-01T11:00:53.649Z,17.70
2023-03-01T11:03:25.938Z,17.83
2023-03-01T11:06:03.114Z,15.67
2023-03-01T11:08:54.903Z,19.67
2023-03-01T11:11:36.897Z,17.23
2023-03-01T11:14:25.987Z,16.60
2023-03-01T11:17:03.385Z,20.03
2023-03-01T11:19:32.301Z,21.93
2023-03-01T11:22:07.800Z,16.90
2023-03-01T11:24:43.783Z,16.27
2023-03-01T11:27:23.390Z,20.33
2023-03-01T11:29:58.080Z,17.33
2023-03-01T11:32:33.475Z,17.57
2023-03-01T11:35:12.331Z,17.67
2023-03-01T11:37:46.218Z,20.13
2023-03-01T11:40:25.154Z,19.97
2023-03-01T11:43:07.459Z,23.27
2023-03-01T11:45:53.646Z,20.73
2023-03-01T11:48:49.794Z,16.73
2023-03-01T11:51:27.247Z,20.27
2023-03-01T11:54:16.134Z,19.27
2023-03-01T11:56:52.618Z,16.30
2023-03-01T11:59:47.003Z,16.77
2023-03-01T12:02:40.082Z,16.57
2023-03-01T12:05:54.208Z,20.13
2023-03-01T12:08:30.909Z,15.00
2023-03-01T12:11:14.098Z,18.67
2023-03-01T12:14:09.530Z,20.43
2023-03-01T12:17:04.433Z,21.23
2023-03-01T12:19:57.338Z,15.17
2023-03-01T12:22:33.743Z,16.10
2023-03-01T12:25:23.137Z,19.27
2023-03-01T12:28:26.218Z,16.43
2023-03-01T12:31:16.907Z,14.70
2023-03-01T12:33:56.435Z,16.87
2023-03-01T12:36:55.085Z,16.27
2023-03-01T12:39:46.363Z,15.17
2023-03-01T12:42:29.237Z,16.67
2023-03-01T12:45:28.112Z,17.73
2023-03-01T12:48:24.799Z,13.87
2023-03-01T12:50:59.047Z,15.67
2023-03-01T12:53:30.628Z,18.90
2023-03-01T12:56:03.359Z,16.83
2023-03-01T12:58:48.854Z,16.87
2023-03-01T13:01:30.341Z,16.90
2023-03-01T13:04:20.139Z,15.30
2023-03-01T13:07:15.139Z,14.17
2023-03-01T13:09:51.914Z,16.73
2023-03-01T13:12:52.876Z,15.17
2023-03-01T13:15:34.197Z,15.83
2023-03-01T13:18:05.235Z,16.70
2023-03-01T13:20:49.049Z,14.33
2023-03-01T13:23:29.720Z,14.83
2023-03-01T13:26:21.633Z,15.87
2023-03-01T13:28:57.882Z,15.37
2023-03-01T13:32:02.880Z,25.07
2023-03-01T13:34:48.449Z,15.83
2023-03-01T13:37:39.711Z,15.57
2023-03-01T13:41:00.067Z,17.23
2023-03-01T13:43:37.461Z,18.33
2023-03-01T13:46:17.316Z,19.37
2023-03-01T13:48:49.905Z,16.43
2023-03-01T13:51:23.981Z,18.97
2023-03-01T13:53:55.910Z,16.27
2023-03-01T13:56:27.995Z,18.67
2023-03-01T13:59:01.849Z,17.27
2023-03-01T14:01:32.503Z,19.43
2023-03-01T14:04:02.806Z,18.17
2023-03-01T14:06:34.589Z,16.07
2023-03-01T14:09:17.428Z,17.17
2023-03-01T14:12:22.302Z,16.63
2023-03-01T14:15:04.485Z,18.30
2023-03-01T14:17:51.282Z,16.67
2023-03-01T14:20:23.082Z,19.20
2023-03-01T14:22:54.842Z,15.03
2023-03-01T14:25:30.725Z,20.07
2023-03-01T14:28:06.375Z,16.57
2023-03-01T14:30:39.443Z,20.50
2023-03-01T14:33:23.727Z,20.30
2023-03-01T14:36:02.042Z,16.53
2023-03-01T14:38:36.825Z,18.43
2023-03-01T14:41:16.806Z,18.27
2023-03-01T14:43:51.532Z,18.17
2023-03-01T14:46:23.590Z,16.33
2023-03-01T14:48:54.359Z,17.63
2023-03-01T14:51:23.450Z,19.50
2023-03-01T14:53:53.001Z,17.80
2023-03-01T14:56:22.668Z,20.17
2023-03-01T14:58:54.518Z,18.00
2023-03-01T15:01:23.223Z,17.50
2023-03-01T15:03:53.244Z,16.80
2023-03-01T15:06:24.479Z,17.03
2023-03-01T15:08:55.956Z,17.73
2023-03-01T15:11:30.315Z,18.30
2023-03-01T15:13:58.731Z,17.00
2023-03-01T15:16:29.272Z,16.93
2023-03-01T15:19:01.724Z,17.80
2023-03-01T15:21:34.133Z,18.87
2023-03-01T15:24:12.563Z,18.27
2023-03-01T15:26:46.679Z,20.60
2023-03-01T15:29:20.172Z,17.63
2023-03-01T15:31:57.955Z,18.33
2023-03-01T15:34:29.354Z,16.53
2023-03-01T15:37:01.047Z,16.47
2023-03-01T15:39:44.268Z,17.27
2023-03-01T15:42:25.869Z,16.67
2023-03-01T15:45:11.035Z,18.10
2023-03-01T15:47:42.534Z,21.67
2023-03-01T15:50:21.699Z,17.70
2023-03-01T15:52:50.301Z,17.10
2023-03-01T15:55:21.125Z,17.00
2023-03-01T15:57:52.028Z,17.73
2023-03-01T16:00:21.569Z,15.37
2023-03-01T16:02:49.804Z,19.90
2023-03-01T16:05:24.377Z,17.87
2023-03-01T16:07:53.296Z,17.27
2023-03-01T16:10:22.299Z,17.03
2023-03-01T16:12:53.545Z,18.17
2023-03-01T16:15:24.383Z,22.33
2023-03-01T16:17:53.217Z,18.00
2023-03-01T16:20:30.105Z,17.13
2023-03-01T16:23:02.022Z,18.30
2023-03-01T16:25:31.601Z,17.90
2023-03-01T16:28:06.256Z,17.83
2023-03-01T16:30:36.238Z,20.40
2023-03-01T16:33:19.234Z,18.20
2023-03-01T16:35:54.230Z,18.27
2023-03-01T16:38:22.637Z,18.50
2023-03-01T16:40:53.452Z,16.77
2023-03-01T16:43:22.856Z,18.07
2023-03-01T16:45:50.982Z,19.00
2023-03-01T16:48:19.126Z,19.90
2023-03-01T16:50:47.197Z,16.97
2023-03-01T16:53:15.388Z,19.47
2023-03-01T16:55:46.456Z,16.80
2023-03-01T16:58:16.386Z,17.60
2023-03-01T17:00:46.168Z,18.17
2023-03-01T17:03:14.725Z,15.90
2023-03-01T17:05:42.899Z,16.73
2023-03-01T17:08:11.028Z,16.30
2023-03-01T17:10:39.074Z,20.93
2023-03-01T17:13:07.294Z,17.50
2023-03-01T17:15:35.390Z,20.80
2023-03-01T17:18:05.759Z,14.03
2023-03-01T17:20:33.963Z,18.70
2023-03-01T17:23:02.111Z,18.37
2023-03-01T17:25:30.358Z,16.30
2023-03-01T17:27:59.070Z,17.43
2023-03-01T17:30:27.394Z,17.63
2023-03-01T17:32:56.190Z,19.47
2023-03-01T17:35:25.949Z,16.83
2023-03-01T17:37:54.117Z,15.30
2023-03-01T17:40:22.638Z,19.00
2023-03-01T17:42:52.491Z,16.70
2023-03-01T17:45:20.823Z,17.40
2023-03-01T17:47:49.136Z,18.50
2023-03-01T17:53:13.121Z,18.37
2023-03-01T17:55:43.316Z,19.07
2023-03-01T17:58:22.570Z,17.63
2023-03-01T18:00:51.071Z,18.43
2023-03-01T18:03:25.913Z,18.83
2023-03-01T18:05:54.294Z,18.33
2023-03-01T18:08:23.669Z,19.37
2023-03-01T18:11:00.188Z,20.27
2023-03-01T18:13:29.580Z,18.30
2023-03-01T18:16:01.534Z,23.50
2023-03-01T18:18:29.878Z,18.30
2023-03-01T18:20:58.638Z,20.40
2023-03-01T18:23:30.708Z,14.57
2023-03-01T18:26:00.718Z,20.33
2023-03-01T18:28:29.380Z,19.87
2023-03-01T18:30:58.918Z,17.97
2023-03-01T18:33:27.342Z,16.60
2023-03-01T18:35:55.596Z,18.03
2023-03-01T18:38:25.273Z,17.30
2023-03-01T18:40:54.938Z,19.77
2023-03-01T18:43:23.820Z,18.43
2023-03-01T18:45:58.852Z,20.33
2023-03-01T18:48:27.809Z,16.83
2023-03-01T18:50:56.514Z,17.53
2023-03-01T18:53:24.926Z,18.40
2023-03-01T18:56:02.284Z,19.40
2023-03-01T18:58:30.714Z,21.53
2023-03-01T19:01:00.070Z,15.00
2023-03-01T19:03:29.352Z,16.57
2023-03-01T19:05:59.009Z,17.23
2023-03-01T19:08:27.376Z,17.03
2023-03-01T19:11:03.100Z,18.53
2023-03-01T19:13:32.111Z,19.20
2023-03-01T19:16:08.442Z,23.67
2023-03-01T19:18:40.056Z,16.53
2023-03-01T19:21:10.157Z,16.70
2023-03-01T19:23:39.066Z,17.13
2023-03-01T19:26:11.239Z,20.67
2023-03-01T19:28:40.013Z,23.13
2023-03-01T19:31:11.221Z,19.83
2023-03-01T19:33:41.097Z,16.03
2023-03-01T19:36:11.539Z,17.83
2023-03-01T19:38:41.383Z,17.77
2023-03-01T19:41:14.825Z,17.17
2023-03-01T19:43:44.045Z,16.03
2023-03-01T19:46:12.745Z,18.90
2023-03-01T19:48:41.337Z,19.37
2023-03-01T19:51:10.887Z,17.37
2023-03-01T19:53:41.882Z,18.43
2023-03-01T19:56:11.576Z,18.47
2023-03-01T19:58:40.461Z,22.33
2023-03-01T20:01:17.401Z,17.00
2023-03-01T20:03:45.790Z,19.90
2023-03-01T20:06:17.036Z,20.60
2023-03-01T20:08:45.525Z,20.37
2023-03-01T20:11:17.450Z,19.10
2023-03-01T20:13:46.413Z,20.00
2023-03-01T20:16:18.065Z,20.23
2023-03-01T20:18:46.344Z,27.37
2023-03-01T20:21:23.906Z,25.73
2023-03-01T20:23:53.721Z,19.90
2023-03-01T20:26:25.568Z,22.07
2023-03-01T20:28:57.066Z,16.10
2023-03-01T20:31:29.602Z,18.73
2023-03-01T20:33:59.825Z,21.83
2023-03-01T20:36:29.182Z,18.90
2023-03-01T20:38:57.807Z,22.80
2023-03-01T20:41:28.578Z,21.17
2023-03-01T20:43:59.298Z,19.90
2023-03-01T20:46:32.362Z,21.23
2023-03-01T20:49:01.630Z,18.80
2023-03-01T20:51:29.986Z,24.30
2023-03-01T20:53:58.759Z,22.80
2023-03-01T20:56:28.314Z,29.17
2023-03-01T20:59:08.093Z,34.13
2023-03-01T21:01:37.844Z,33.87
2023-03-01T21:04:06.844Z,26.87
2023-03-01T21:06:35.337Z,35.50
2023-03-01T21:09:04.108Z,26.10
2023-03-01T21:11:33.598Z,29.87
2023-03-01T21:14:02.039Z,26.53
2023-03-01T21:16:31.033Z,26.80
2023-03-01T21:19:01.881Z,29.67
2023-03-01T21:21:30.544Z,37.30
2023-03-01T21:23:58.727Z,35.77
2023-03-01T21:26:28.943Z,41.50
2023-03-01T21:29:01.582Z,33.40
2023-03-01T21:31:33.894Z,30.07
2023-03-01T21:34:05.297Z,27.97
2023-03-01T21:36:34.750Z,32.63
2023-03-01T21:39:04.125Z,38.10
2023-03-01T21:41:35.847Z,28.07
2023-03-01T21:44:07.750Z,33.27
2023-03-01T21:46:39.706Z,38.97
2023-03-01T21:49:09.024Z,36.87
2023-03-01T21:51:37.611Z,23.00
2023-03-01T21:54:06.804Z,21.57
2023-03-01T21:56:38.842Z,21.83
2023-03-01T21:59:12.884Z,19.13
2023-03-01T22:01:41.518Z,19.63
2023-03-01T22:04:10.929Z,17.33
2023-03-01T22:06:42.369Z,22.37
2023-03-01T22:09:14.897Z,21.33
2023-03-01T22:11:45.782Z,20.40
2023-03-01T22:14:15.662Z,19.17
2023-03-01T22:16:45.598Z,20.07
2023-03-01T22:19:16.330Z,19.73
2023-03-01T22:21:49.135Z,22.93
2023-03-01T22:24:18.342Z,18.23
2023-03-01T22:26:48.649Z,20.17
2023-03-01T22:29:20.530Z,18.33
2023-03-01T22:31:48.889Z,18.27
2023-03-01T22:34:18.136Z,21.57
2023-03-01T22:36:47.264Z,16.73
2023-03-01T22:39:18.703Z,20.17
2023-03-01T22:41:49.597Z,15.43
2023-03-01T22:44:21.647Z,14.90
2023-03-01T22:46:50.337Z,18.83
2023-03-01T22:49:20.260Z,19.00
2023-03-01T22:51:48.500Z,20.70
2023-03-01T22:54:19.411Z,17.03
2023-03-01T22:56:48.173Z,16.87
2023-03-01T22:59:22.546Z,22.30
2023-03-01T23:01:52.098Z,20.07
2023-03-01T23:04:21.715Z,16.90
2023-03-01T23:06:54.210Z,19.20
2023-03-01T23:09:26.513Z,21.23
2023-03-01T23:11:55.886Z,19.23
2023-03-01T23:14:26.494Z,22.97
2023-03-01T23:16:54.943Z,18.77
2023-03-01T23:19:24.071Z,21.03
2023-03-01T23:21:54.220Z,17.03
2023-03-01T23:24:31.601Z,18.83
2023-03-01T23:27:02.136Z,18.33
2023-03-01T23:29:32.729Z,20.03
2023-03-01T23:32:01.462Z,17.03
2023-03-01T23:34:29.750Z,17.97
2023-03-01T23:36:58.606Z,18.03
2023-03-01T23:39:29.923Z,19.80
2023-03-01T23:41:58.800Z,18.73
2023-03-01T23:44:27.336Z,21.60
2023-03-01T23:46:56.835Z,21.90
2023-03-01T23:49:25.009Z,19.27
2023-03-01T23:51:53.631Z,18.97
2023-03-01T23:54:25.013Z,18.67
2023-03-01T23:56:53.243Z,18.90
2023-03-01T23:59:23.773Z,17.07
